sensor_id;sensor_type;location;lat;lon;timestamp;temperature;humidity
38237;DHT22;50101;49.438;11.098;2024-02-26T00:01:04;19.00;54.50
38237;DHT22;50101;49.438;11.098;2024-02-26T00:03:31;19.00;54.60
38237;DHT22;50101;49.438;11.098;2024-02-26T00:06:00;19.00;54.60
38237;DHT22;50101;49.438;11.098;2024-02-26T00:08:26;19.00;54.50
38237;DHT22;50101;49.438;11.098;2024-02-26T00:10:53;19.00;54.50
38237;DHT22;50101;49.438;11.098;2024-02-26T00:13:20;18.90;54.50
38237;DHT22;50101;49.438;11.098;2024-02-26T00:15:48;18.90;54.50
38237;DHT22;50101;49.438;11.098;2024-02-26T00:18:15;19.00;54.50
38237;DHT22;50101;49.438;11.098;2024-02-26T00:20:42;18.90;54.50
38237;DHT22;50101;49.438;11.098;2024-02-26T00:23:09;18.90;54.50
38237;DHT22;50101;49.438;11.098;2024-02-26T00:25:36;18.90;54.40
38237;DHT22;50101;49.438;11.098;2024-02-26T00:28:05;18.90;54.40
38237;DHT22;50101;49.438;11.098;2024-02-26T00:30:32;18.90;54.40
38237;DHT22;50101;49.438;11.098;2024-02-26T00:32:59;18.90;54.40
38237;DHT22;50101;49.438;11.098;2024-02-26T00:35:26;18.90;54.40
38237;DHT22;50101;49.438;11.098;2024-02-26T00:37:52;18.90;54.40
38237;DHT22;50101;49.438;11.098;2024-02-26T00:40:19;18.90;54.40
38237;DHT22;50101;49.438;11.098;2024-02-26T00:42:46;18.90;54.30
38237;DHT22;50101;49.438;11.098;2024-02-26T00:45:14;18.90;54.30
38237;DHT22;50101;49.438;11.098;2024-02-26T00:47:42;18.90;54.30
38237;DHT22;50101;49.438;11.098;2024-02-26T00:50:11;18.90;53.70
38237;DHT22;50101;49.438;11.098;2024-02-26T00:52:37;18.90;54.20
38237;DHT22;50101;49.438;11.098;2024-02-26T00:55:04;18.90;54.30
38237;DHT22;50101;49.438;11.098;2024-02-26T00:57:31;18.80;54.10
38237;DHT22;50101;49.438;11.098;2024-02-26T00:59:58;18.80;53.60
38237;DHT22;50101;49.438;11.098;2024-02-26T01:02:26;18.90;54.10
38237;DHT22;50101;49.438;11.098;2024-02-26T01:04:52;18.90;54.10
38237;DHT22;50101;49.438;11.098;2024-02-26T01:07:19;18.80;54.00
38237;DHT22;50101;49.438;11.098;2024-02-26T01:09:46;18.80;54.10
38237;DHT22;50101;49.438;11.098;2024-02-26T01:12:13;18.80;54.00
38237;DHT22;50101;49.438;11.098;2024-02-26T01:14:40;18.90;54.10
38237;DHT22;50101;49.438;11.098;2024-02-26T01:17:06;18.80;54.00
38237;DHT22;50101;49.438;11.098;2024-02-26T01:19:33;18.80;53.50
38237;DHT22;50101;49.438;11.098;2024-02-26T01:22:00;18.80;54.00
38237;DHT22;50101;49.438;11.098;2024-02-26T01:24:26;18.80;53.50
38237;DHT22;50101;49.438;11.098;2024-02-26T01:26:53;18.70;53.40
38237;DHT22;50101;49.438;11.098;2024-02-26T01:29:20;18.80;54.00
38237;DHT22;50101;49.438;11.098;2024-02-26T01:31:47;18.80;53.90
38237;DHT22;50101;49.438;11.098;2024-02-26T01:36:41;18.80;53.40
38237;DHT22;50101;49.438;11.098;2024-02-26T01:41:38;18.80;53.40
38237;DHT22;50101;49.438;11.098;2024-02-26T01:44:07;18.80;53.40
38237;DHT22;50101;49.438;11.098;2024-02-26T01:46:34;18.70;53.30
38237;DHT22;50101;49.438;11.098;2024-02-26T01:49:02;18.80;53.40
38237;DHT22;50101;49.438;11.098;2024-02-26T01:51:31;18.80;53.40
38237;DHT22;50101;49.438;11.098;2024-02-26T01:53:59;18.80;53.40
38237;DHT22;50101;49.438;11.098;2024-02-26T01:56:28;18.70;53.30
38237;DHT22;50101;49.438;11.098;2024-02-26T01:58:58;18.70;53.20
38237;DHT22;50101;49.438;11.098;2024-02-26T02:01:29;18.80;53.40
38237;DHT22;50101;49.438;11.098;2024-02-26T02:03:58;18.70;53.40
38237;DHT22;50101;49.438;11.098;2024-02-26T02:06:25;18.70;53.30
38237;DHT22;50101;49.438;11.098;2024-02-26T02:08:54;18.70;53.30
38237;DHT22;50101;49.438;11.098;2024-02-26T02:16:16;18.70;53.20
38237;DHT22;50101;49.438;11.098;2024-02-26T02:21:10;18.70;53.20
38237;DHT22;50101;49.438;11.098;2024-02-26T02:26:03;18.70;53.20
38237;DHT22;50101;49.438;11.098;2024-02-26T02:28:30;18.70;53.20
38237;DHT22;50101;49.438;11.098;2024-02-26T02:30:57;18.70;53.20
38237;DHT22;50101;49.438;11.098;2024-02-26T02:33:25;18.70;53.20
38237;DHT22;50101;49.438;11.098;2024-02-26T02:35:52;18.70;53.10
38237;DHT22;50101;49.438;11.098;2024-02-26T02:38:21;18.70;53.20
38237;DHT22;50101;49.438;11.098;2024-02-26T02:40:49;18.60;53.10
38237;DHT22;50101;49.438;11.098;2024-02-26T02:43:16;18.70;53.20
38237;DHT22;50101;49.438;11.098;2024-02-26T02:45:43;18.70;53.10
38237;DHT22;50101;49.438;11.098;2024-02-26T02:48:11;18.70;53.20
38237;DHT22;50101;49.438;11.098;2024-02-26T02:50:38;18.70;53.10
38237;DHT22;50101;49.438;11.098;2024-02-26T02:53:05;18.60;53.10
38237;DHT22;50101;49.438;11.098;2024-02-26T02:55:31;18.70;53.10
38237;DHT22;50101;49.438;11.098;2024-02-26T02:57:58;18.60;53.10
38237;DHT22;50101;49.438;11.098;2024-02-26T03:00:25;18.60;53.00
38237;DHT22;50101;49.438;11.098;2024-02-26T03:02:52;18.60;53.10
38237;DHT22;50101;49.438;11.098;2024-02-26T03:05:19;18.60;53.10
38237;DHT22;50101;49.438;11.098;2024-02-26T03:10:13;18.70;53.00
38237;DHT22;50101;49.438;11.098;2024-02-26T03:12:40;18.70;53.10
38237;DHT22;50101;49.438;11.098;2024-02-26T03:15:07;18.60;53.50
38237;DHT22;50101;49.438;11.098;2024-02-26T03:17:34;18.60;53.50
38237;DHT22;50101;49.438;11.098;2024-02-26T03:20:00;18.60;53.50
38237;DHT22;50101;49.438;11.098;2024-02-26T03:22:27;18.60;53.00
38237;DHT22;50101;49.438;11.098;2024-02-26T03:24:54;18.60;53.50
38237;DHT22;50101;49.438;11.098;2024-02-26T03:27:20;18.60;53.60
38237;DHT22;50101;49.438;11.098;2024-02-26T03:29:47;18.60;53.50
38237;DHT22;50101;49.438;11.098;2024-02-26T03:32:14;18.60;53.10
38237;DHT22;50101;49.438;11.098;2024-02-26T03:34:41;18.60;53.00
38237;DHT22;50101;49.438;11.098;2024-02-26T03:37:08;18.60;53.00
38237;DHT22;50101;49.438;11.098;2024-02-26T03:39:37;18.60;53.10
38237;DHT22;50101;49.438;11.098;2024-02-26T03:42:04;18.60;53.00
38237;DHT22;50101;49.438;11.098;2024-02-26T03:44:30;18.60;53.00
38237;DHT22;50101;49.438;11.098;2024-02-26T03:46:57;18.60;53.00
38237;DHT22;50101;49.438;11.098;2024-02-26T03:49:24;18.60;53.00
38237;DHT22;50101;49.438;11.098;2024-02-26T03:51:51;18.60;53.50
38237;DHT22;50101;49.438;11.098;2024-02-26T03:54:17;18.60;53.00
38237;DHT22;50101;49.438;11.098;2024-02-26T03:56:44;18.60;53.00
38237;DHT22;50101;49.438;11.098;2024-02-26T03:59:11;18.60;53.10
38237;DHT22;50101;49.438;11.098;2024-02-26T04:01:38;18.50;53.50
38237;DHT22;50101;49.438;11.098;2024-02-26T04:04:05;18.60;53.00
38237;DHT22;50101;49.438;11.098;2024-02-26T04:06:31;18.50;52.90
38237;DHT22;50101;49.438;11.098;2024-02-26T04:08:58;18.50;52.90
38237;DHT22;50101;49.438;11.098;2024-02-26T04:11:25;18.60;53.00
38237;DHT22;50101;49.438;11.098;2024-02-26T04:13:52;18.50;52.90
38237;DHT22;50101;49.438;11.098;2024-02-26T04:16:19;18.50;53.30
38237;DHT22;50101;49.438;11.098;2024-02-26T04:18:45;18.50;52.90
38237;DHT22;50101;49.438;11.098;2024-02-26T04:21:13;18.50;52.90
38237;DHT22;50101;49.438;11.098;2024-02-26T04:23:39;18.50;52.90
38237;DHT22;50101;49.438;11.098;2024-02-26T04:26:06;18.50;52.90
38237;DHT22;50101;49.438;11.098;2024-02-26T04:28:33;18.50;52.90
38237;DHT22;50101;49.438;11.098;2024-02-26T04:30:59;18.50;52.90
38237;DHT22;50101;49.438;11.098;2024-02-26T04:33:26;18.50;52.90
38237;DHT22;50101;49.438;11.098;2024-02-26T04:35:53;18.50;52.90
38237;DHT22;50101;49.438;11.098;2024-02-26T04:38:20;18.50;53.40
38237;DHT22;50101;49.438;11.098;2024-02-26T04:40:46;18.50;52.90
38237;DHT22;50101;49.438;11.098;2024-02-26T04:43:13;18.50;53.00
38237;DHT22;50101;49.438;11.098;2024-02-26T04:45:40;18.50;53.00
38237;DHT22;50101;49.438;11.098;2024-02-26T04:48:07;18.50;53.00
38237;DHT22;50101;49.438;11.098;2024-02-26T04:50:34;18.50;53.10
38237;DHT22;50101;49.438;11.098;2024-02-26T04:53:01;18.50;53.10
38237;DHT22;50101;49.438;11.098;2024-02-26T04:55:27;18.50;53.10
38237;DHT22;50101;49.438;11.098;2024-02-26T04:57:54;18.50;53.10
38237;DHT22;50101;49.438;11.098;2024-02-26T05:00:21;18.50;53.60
38237;DHT22;50101;49.438;11.098;2024-02-26T05:02:50;18.50;53.00
38237;DHT22;50101;49.438;11.098;2024-02-26T05:05:17;18.40;53.50
38237;DHT22;50101;49.438;11.098;2024-02-26T05:07:44;18.50;53.00
38237;DHT22;50101;49.438;11.098;2024-02-26T05:10:11;18.50;53.00
38237;DHT22;50101;49.438;11.098;2024-02-26T05:12:38;18.40;53.00
38237;DHT22;50101;49.438;11.098;2024-02-26T05:15:05;18.40;53.00
38237;DHT22;50101;49.438;11.098;2024-02-26T05:17:32;18.50;53.00
38237;DHT22;50101;49.438;11.098;2024-02-26T05:19:59;18.50;53.10
38237;DHT22;50101;49.438;11.098;2024-02-26T05:22:25;18.50;53.10
38237;DHT22;50101;49.438;11.098;2024-02-26T05:24:52;18.40;53.00
38237;DHT22;50101;49.438;11.098;2024-02-26T05:27:19;18.50;53.10
38237;DHT22;50101;49.438;11.098;2024-02-26T05:29:46;18.50;53.10
38237;DHT22;50101;49.438;11.098;2024-02-26T05:32:12;18.50;53.10
38237;DHT22;50101;49.438;11.098;2024-02-26T05:34:39;18.40;53.00
38237;DHT22;50101;49.438;11.098;2024-02-26T05:37:07;18.50;53.10
38237;DHT22;50101;49.438;11.098;2024-02-26T05:39:34;18.50;53.10
38237;DHT22;50101;49.438;11.098;2024-02-26T05:42:01;18.50;53.00
38237;DHT22;50101;49.438;11.098;2024-02-26T05:44:28;18.50;52.90
38237;DHT22;50101;49.438;11.098;2024-02-26T05:46:54;18.70;53.30
38237;DHT22;50101;49.438;11.098;2024-02-26T05:49:22;18.70;53.30
38237;DHT22;50101;49.438;11.098;2024-02-26T05:51:49;18.80;53.50
38237;DHT22;50101;49.438;11.098;2024-02-26T05:54:16;18.80;53.40
38237;DHT22;50101;49.438;11.098;2024-02-26T05:56:43;18.90;53.20
38237;DHT22;50101;49.438;11.098;2024-02-26T05:59:10;18.90;53.30
38237;DHT22;50101;49.438;11.098;2024-02-26T06:01:36;18.90;53.70
38237;DHT22;50101;49.438;11.098;2024-02-26T06:04:03;19.00;53.40
38237;DHT22;50101;49.438;11.098;2024-02-26T06:06:30;19.00;53.90
38237;DHT22;50101;49.438;11.098;2024-02-26T06:08:57;19.00;53.40
38237;DHT22;50101;49.438;11.098;2024-02-26T06:11:24;19.00;53.30
38237;DHT22;50101;49.438;11.098;2024-02-26T06:13:50;19.00;53.40
38237;DHT22;50101;49.438;11.098;2024-02-26T06:16:17;19.10;53.30
38237;DHT22;50101;49.438;11.098;2024-02-26T06:18:44;19.10;53.20
38237;DHT22;50101;49.438;11.098;2024-02-26T06:21:11;19.10;53.70
38237;DHT22;50101;49.438;11.098;2024-02-26T06:23:39;19.00;53.10
38237;DHT22;50101;49.438;11.098;2024-02-26T06:26:06;19.00;53.10
38237;DHT22;50101;49.438;11.098;2024-02-26T06:28:33;19.10;53.50
38237;DHT22;50101;49.438;11.098;2024-02-26T06:31:02;19.20;53.50
38237;DHT22;50101;49.438;11.098;2024-02-26T06:33:29;19.20;53.50
38237;DHT22;50101;49.438;11.098;2024-02-26T06:35:56;19.20;53.30
38237;DHT22;50101;49.438;11.098;2024-02-26T06:38:22;19.20;53.40
38237;DHT22;50101;49.438;11.098;2024-02-26T06:40:49;19.30;53.40
38237;DHT22;50101;49.438;11.098;2024-02-26T06:43:16;19.30;53.50
38237;DHT22;50101;49.438;11.098;2024-02-26T06:45:43;19.30;53.30
38237;DHT22;50101;49.438;11.098;2024-02-26T06:48:09;19.30;53.20
38237;DHT22;50101;49.438;11.098;2024-02-26T06:50:36;19.30;53.30
38237;DHT22;50101;49.438;11.098;2024-02-26T06:53:03;19.30;53.30
38237;DHT22;50101;49.438;11.098;2024-02-26T06:55:30;19.30;53.20
38237;DHT22;50101;49.438;11.098;2024-02-26T06:57:57;19.30;53.20
38237;DHT22;50101;49.438;11.098;2024-02-26T07:00:23;19.30;53.20
38237;DHT22;50101;49.438;11.098;2024-02-26T07:02:50;19.40;53.30
38237;DHT22;50101;49.438;11.098;2024-02-26T07:05:17;19.40;53.70
38237;DHT22;50101;49.438;11.098;2024-02-26T07:07:43;19.40;53.20
38237;DHT22;50101;49.438;11.098;2024-02-26T07:10:10;19.40;53.10
38237;DHT22;50101;49.438;11.098;2024-02-26T07:12:39;19.40;53.00
38237;DHT22;50101;49.438;11.098;2024-02-26T07:15:06;19.40;53.10
38237;DHT22;50101;49.438;11.098;2024-02-26T07:17:34;19.50;53.20
38237;DHT22;50101;49.438;11.098;2024-02-26T07:20:01;19.50;53.10
38237;DHT22;50101;49.438;11.098;2024-02-26T07:22:34;19.50;53.00
38237;DHT22;50101;49.438;11.098;2024-02-26T07:25:00;19.50;52.90
38237;DHT22;50101;49.438;11.098;2024-02-26T07:27:27;19.50;52.90
38237;DHT22;50101;49.438;11.098;2024-02-26T07:29:54;19.50;52.90
38237;DHT22;50101;49.438;11.098;2024-02-26T07:32:21;19.50;53.40
38237;DHT22;50101;49.438;11.098;2024-02-26T07:34:48;19.50;53.30
38237;DHT22;50101;49.438;11.098;2024-02-26T07:37:15;19.50;52.70
38237;DHT22;50101;49.438;11.098;2024-02-26T07:39:42;19.50;52.70
38237;DHT22;50101;49.438;11.098;2024-02-26T07:42:09;19.50;52.70
38237;DHT22;50101;49.438;11.098;2024-02-26T07:44:36;19.60;52.90
38237;DHT22;50101;49.438;11.098;2024-02-26T07:47:03;19.60;52.80
38237;DHT22;50101;49.438;11.098;2024-02-26T07:49:29;19.60;52.70
38237;DHT22;50101;49.438;11.098;2024-02-26T07:51:56;19.60;52.70
38237;DHT22;50101;49.438;11.098;2024-02-26T07:56:52;19.60;52.80
38237;DHT22;50101;49.438;11.098;2024-02-26T07:59:19;19.60;52.70
38237;DHT22;50101;49.438;11.098;2024-02-26T08:01:52;19.70;52.80
38237;DHT22;50101;49.438;11.098;2024-02-26T08:04:24;19.70;52.70
38237;DHT22;50101;49.438;11.098;2024-02-26T08:06:53;19.70;53.20
38237;DHT22;50101;49.438;11.098;2024-02-26T08:09:20;19.70;53.20
38237;DHT22;50101;49.438;11.098;2024-02-26T08:11:46;19.70;52.60
38237;DHT22;50101;49.438;11.098;2024-02-26T08:14:13;19.70;52.60
38237;DHT22;50101;49.438;11.098;2024-02-26T08:16:40;19.70;52.60
38237;DHT22;50101;49.438;11.098;2024-02-26T08:19:07;19.70;52.70
38237;DHT22;50101;49.438;11.098;2024-02-26T08:21:34;19.60;52.60
38237;DHT22;50101;49.438;11.098;2024-02-26T08:24:00;19.70;52.70
38237;DHT22;50101;49.438;11.098;2024-02-26T08:26:27;19.70;52.70
38237;DHT22;50101;49.438;11.098;2024-02-26T08:28:55;19.70;52.70
38237;DHT22;50101;49.438;11.098;2024-02-26T08:31:23;19.60;52.80
38237;DHT22;50101;49.438;11.098;2024-02-26T08:33:50;19.70;52.70
38237;DHT22;50101;49.438;11.098;2024-02-26T08:36:17;19.70;52.60
38237;DHT22;50101;49.438;11.098;2024-02-26T08:38:44;19.70;52.60
38237;DHT22;50101;49.438;11.098;2024-02-26T08:41:10;19.70;52.60
38237;DHT22;50101;49.438;11.098;2024-02-26T08:43:37;19.70;52.50
38237;DHT22;50101;49.438;11.098;2024-02-26T08:48:31;19.70;52.60
38237;DHT22;50101;49.438;11.098;2024-02-26T08:50:58;19.70;52.40
38237;DHT22;50101;49.438;11.098;2024-02-26T08:56:06;19.70;52.60
38237;DHT22;50101;49.438;11.098;2024-02-26T08:58:33;19.70;52.60
38237;DHT22;50101;49.438;11.098;2024-02-26T09:01:00;19.70;52.50
38237;DHT22;50101;49.438;11.098;2024-02-26T09:03:27;19.70;52.40
38237;DHT22;50101;49.438;11.098;2024-02-26T09:05:54;19.70;52.40
38237;DHT22;50101;49.438;11.098;2024-02-26T09:10:49;19.80;52.50
38237;DHT22;50101;49.438;11.098;2024-02-26T09:13:16;19.80;52.70
38237;DHT22;50101;49.438;11.098;2024-02-26T09:15:43;19.80;52.70
38237;DHT22;50101;49.438;11.098;2024-02-26T09:18:09;19.80;52.60
38237;DHT22;50101;49.438;11.098;2024-02-26T09:20:37;19.80;52.60
38237;DHT22;50101;49.438;11.098;2024-02-26T09:27:59;19.90;52.50
38237;DHT22;50101;49.438;11.098;2024-02-26T09:30:26;19.80;52.50
38237;DHT22;50101;49.438;11.098;2024-02-26T09:32:53;19.90;52.70
38237;DHT22;50101;49.438;11.098;2024-02-26T09:35:20;19.90;52.70
38237;DHT22;50101;49.438;11.098;2024-02-26T09:37:47;19.80;52.60
38237;DHT22;50101;49.438;11.098;2024-02-26T09:40:15;19.90;52.80
38237;DHT22;50101;49.438;11.098;2024-02-26T09:42:44;20.00;52.70
38237;DHT22;50101;49.438;11.098;2024-02-26T09:45:17;20.00;52.70
38237;DHT22;50101;49.438;11.098;2024-02-26T09:47:45;20.00;52.70
38237;DHT22;50101;49.438;11.098;2024-02-26T09:50:14;20.00;52.90
38237;DHT22;50101;49.438;11.098;2024-02-26T09:52:44;20.00;52.90
38237;DHT22;50101;49.438;11.098;2024-02-26T09:55:11;20.00;53.00
38237;DHT22;50101;49.438;11.098;2024-02-26T09:57:37;20.00;52.70
38237;DHT22;50101;49.438;11.098;2024-02-26T10:00:08;19.90;52.60
38237;DHT22;50101;49.438;11.098;2024-02-26T10:02:38;20.00;52.60
38237;DHT22;50101;49.438;11.098;2024-02-26T10:05:07;20.00;52.30
38237;DHT22;50101;49.438;11.098;2024-02-26T10:07:37;20.00;52.50
38237;DHT22;50101;49.438;11.098;2024-02-26T10:10:04;20.00;52.40
38237;DHT22;50101;49.438;11.098;2024-02-26T10:12:31;20.00;52.50
38237;DHT22;50101;49.438;11.098;2024-02-26T10:14:59;20.00;52.50
38237;DHT22;50101;49.438;11.098;2024-02-26T10:17:26;20.00;52.90
38237;DHT22;50101;49.438;11.098;2024-02-26T10:19:54;20.00;52.80
38237;DHT22;50101;49.438;11.098;2024-02-26T10:22:23;19.90;52.70
38237;DHT22;50101;49.438;11.098;2024-02-26T10:24:49;20.00;52.70
38237;DHT22;50101;49.438;11.098;2024-02-26T10:27:16;20.00;52.80
38237;DHT22;50101;49.438;11.098;2024-02-26T10:29:43;20.00;52.90
38237;DHT22;50101;49.438;11.098;2024-02-26T10:32:11;20.00;52.90
38237;DHT22;50101;49.438;11.098;2024-02-26T10:34:40;20.00;53.00
38237;DHT22;50101;49.438;11.098;2024-02-26T10:37:08;20.00;52.90
38237;DHT22;50101;49.438;11.098;2024-02-26T10:39:36;19.90;52.70
38237;DHT22;50101;49.438;11.098;2024-02-26T10:42:03;20.00;52.70
38237;DHT22;50101;49.438;11.098;2024-02-26T10:44:36;20.00;52.80
38237;DHT22;50101;49.438;11.098;2024-02-26T10:47:03;19.90;52.90
38237;DHT22;50101;49.438;11.098;2024-02-26T10:49:30;20.10;53.00
38237;DHT22;50101;49.438;11.098;2024-02-26T10:51:57;20.00;52.70
38237;DHT22;50101;49.438;11.098;2024-02-26T10:54:26;20.00;52.80
38237;DHT22;50101;49.438;11.098;2024-02-26T10:56:56;20.00;52.80
38237;DHT22;50101;49.438;11.098;2024-02-26T10:59:24;20.00;52.80
38237;DHT22;50101;49.438;11.098;2024-02-26T11:01:51;20.00;53.10
38237;DHT22;50101;49.438;11.098;2024-02-26T11:04:22;20.00;53.10
38237;DHT22;50101;49.438;11.098;2024-02-26T11:06:49;20.00;53.10
38237;DHT22;50101;49.438;11.098;2024-02-26T11:09:17;20.10;53.20
38237;DHT22;50101;49.438;11.098;2024-02-26T11:11:47;20.10;53.10
38237;DHT22;50101;49.438;11.098;2024-02-26T11:14:15;20.10;53.20
38237;DHT22;50101;49.438;11.098;2024-02-26T11:16:43;20.10;53.20
38237;DHT22;50101;49.438;11.098;2024-02-26T11:19:11;20.10;53.20
38237;DHT22;50101;49.438;11.098;2024-02-26T11:21:40;20.10;53.20
38237;DHT22;50101;49.438;11.098;2024-02-26T11:24:13;20.10;53.30
38237;DHT22;50101;49.438;11.098;2024-02-26T11:26:45;20.10;53.20
38237;DHT22;50101;49.438;11.098;2024-02-26T11:29:19;20.10;53.70
38237;DHT22;50101;49.438;11.098;2024-02-26T11:31:47;20.10;53.70
38237;DHT22;50101;49.438;11.098;2024-02-26T11:34:14;20.10;53.20
38237;DHT22;50101;49.438;11.098;2024-02-26T11:36:41;20.10;53.70
38237;DHT22;50101;49.438;11.098;2024-02-26T11:39:11;20.10;53.30
38237;DHT22;50101;49.438;11.098;2024-02-26T11:41:40;20.10;53.30
38237;DHT22;50101;49.438;11.098;2024-02-26T11:44:08;20.10;53.30
38237;DHT22;50101;49.438;11.098;2024-02-26T11:46:42;20.10;53.20
38237;DHT22;50101;49.438;11.098;2024-02-26T11:51:56;20.10;53.50
38237;DHT22;50101;49.438;11.098;2024-02-26T11:54:53;20.20;53.70
38237;DHT22;50101;49.438;11.098;2024-02-26T11:57:30;20.20;53.90
38237;DHT22;50101;49.438;11.098;2024-02-26T12:00:13;20.20;53.90
38237;DHT22;50101;49.438;11.098;2024-02-26T12:02:43;20.20;54.00
38237;DHT22;50101;49.438;11.098;2024-02-26T12:05:20;20.20;53.80
38237;DHT22;50101;49.438;11.098;2024-02-26T12:07:54;20.20;53.90
38237;DHT22;50101;49.438;11.098;2024-02-26T12:10:28;20.20;53.90
38237;DHT22;50101;49.438;11.098;2024-02-26T12:15:55;20.30;54.10
38237;DHT22;50101;49.438;11.098;2024-02-26T12:18:23;20.20;54.00
38237;DHT22;50101;49.438;11.098;2024-02-26T12:23:27;20.30;54.10
38237;DHT22;50101;49.438;11.098;2024-02-26T12:26:01;20.30;54.60
38237;DHT22;50101;49.438;11.098;2024-02-26T12:28:33;20.30;54.50
38237;DHT22;50101;49.438;11.098;2024-02-26T12:31:00;20.30;54.50
38237;DHT22;50101;49.438;11.098;2024-02-26T12:33:27;20.30;55.00
38237;DHT22;50101;49.438;11.098;2024-02-26T12:35:55;20.30;54.50
38237;DHT22;50101;49.438;11.098;2024-02-26T12:38:22;20.30;53.80
38237;DHT22;50101;49.438;11.098;2024-02-26T12:40:49;20.40;54.30
38237;DHT22;50101;49.438;11.098;2024-02-26T12:43:16;20.30;54.40
38237;DHT22;50101;49.438;11.098;2024-02-26T12:45:43;20.40;54.50
38237;DHT22;50101;49.438;11.098;2024-02-26T12:48:13;20.40;54.50
38237;DHT22;50101;49.438;11.098;2024-02-26T12:50:44;20.30;54.70
38237;DHT22;50101;49.438;11.098;2024-02-26T12:53:12;20.30;54.60
38237;DHT22;50101;49.438;11.098;2024-02-26T12:55:39;20.30;54.70
38237;DHT22;50101;49.438;11.098;2024-02-26T12:58:07;20.30;54.60
38237;DHT22;50101;49.438;11.098;2024-02-26T13:00:34;20.30;54.70
38237;DHT22;50101;49.438;11.098;2024-02-26T13:03:01;20.40;54.70
38237;DHT22;50101;49.438;11.098;2024-02-26T13:05:28;20.40;54.70
38237;DHT22;50101;49.438;11.098;2024-02-26T13:07:55;20.40;54.70
38237;DHT22;50101;49.438;11.098;2024-02-26T13:10:22;20.40;54.70
38237;DHT22;50101;49.438;11.098;2024-02-26T13:12:49;20.50;54.70
38237;DHT22;50101;49.438;11.098;2024-02-26T13:15:20;20.50;54.00
38237;DHT22;50101;49.438;11.098;2024-02-26T13:17:48;20.50;54.60
38237;DHT22;50101;49.438;11.098;2024-02-26T13:20:29;20.50;54.60
38237;DHT22;50101;49.438;11.098;2024-02-26T13:23:12;20.50;54.60
38237;DHT22;50101;49.438;11.098;2024-02-26T13:25:41;20.50;54.20
38237;DHT22;50101;49.438;11.098;2024-02-26T13:28:16;20.50;54.20
38237;DHT22;50101;49.438;11.098;2024-02-26T13:30:54;20.50;54.80
38237;DHT22;50101;49.438;11.098;2024-02-26T13:33:25;20.50;54.80
38237;DHT22;50101;49.438;11.098;2024-02-26T13:35:54;20.40;54.40
38237;DHT22;50101;49.438;11.098;2024-02-26T13:38:21;20.40;54.50
38237;DHT22;50101;49.438;11.098;2024-02-26T13:40:49;20.40;54.80
38237;DHT22;50101;49.438;11.098;2024-02-26T13:43:15;20.40;55.30
38237;DHT22;50101;49.438;11.098;2024-02-26T13:45:45;20.30;54.80
38237;DHT22;50101;49.438;11.098;2024-02-26T13:48:12;20.30;55.30
38237;DHT22;50101;49.438;11.098;2024-02-26T13:50:40;20.30;54.90
38237;DHT22;50101;49.438;11.098;2024-02-26T13:53:09;20.40;55.10
38237;DHT22;50101;49.438;11.098;2024-02-26T13:55:36;20.40;55.00
38237;DHT22;50101;49.438;11.098;2024-02-26T13:58:03;20.40;55.20
38237;DHT22;50101;49.438;11.098;2024-02-26T14:00:30;20.40;55.20
38237;DHT22;50101;49.438;11.098;2024-02-26T14:03:02;20.40;55.20
38237;DHT22;50101;49.438;11.098;2024-02-26T14:05:29;20.40;55.30
38237;DHT22;50101;49.438;11.098;2024-02-26T14:07:56;20.20;55.20
38237;DHT22;50101;49.438;11.098;2024-02-26T14:10:24;20.20;55.60
38237;DHT22;50101;49.438;11.098;2024-02-26T14:12:50;20.20;55.40
38237;DHT22;50101;49.438;11.098;2024-02-26T14:15:17;20.20;55.40
38237;DHT22;50101;49.438;11.098;2024-02-26T14:17:44;20.10;55.40
38237;DHT22;50101;49.438;11.098;2024-02-26T14:20:12;20.20;55.30
38237;DHT22;50101;49.438;11.098;2024-02-26T14:22:39;20.30;55.20
38237;DHT22;50101;49.438;11.098;2024-02-26T14:25:06;20.40;55.20
38237;DHT22;50101;49.438;11.098;2024-02-26T14:27:35;20.40;55.30
38237;DHT22;50101;49.438;11.098;2024-02-26T14:30:02;20.40;55.30
38237;DHT22;50101;49.438;11.098;2024-02-26T14:32:29;20.40;55.20
38237;DHT22;50101;49.438;11.098;2024-02-26T14:35:01;20.40;55.30
38237;DHT22;50101;49.438;11.098;2024-02-26T14:37:29;20.40;55.30
38237;DHT22;50101;49.438;11.098;2024-02-26T14:39:56;20.40;55.40
38237;DHT22;50101;49.438;11.098;2024-02-26T14:42:22;20.30;55.40
38237;DHT22;50101;49.438;11.098;2024-02-26T14:44:50;20.40;55.30
38237;DHT22;50101;49.438;11.098;2024-02-26T14:47:17;20.30;55.30
38237;DHT22;50101;49.438;11.098;2024-02-26T14:49:44;20.20;55.30
38237;DHT22;50101;49.438;11.098;2024-02-26T14:52:14;20.10;55.50
38237;DHT22;50101;49.438;11.098;2024-02-26T14:54:41;20.10;55.80
38237;DHT22;50101;49.438;11.098;2024-02-26T14:57:08;20.10;55.70
38237;DHT22;50101;49.438;11.098;2024-02-26T14:59:35;20.10;55.40
38237;DHT22;50101;49.438;11.098;2024-02-26T15:02:03;20.10;55.40
38237;DHT22;50101;49.438;11.098;2024-02-26T15:04:30;20.20;55.30
38237;DHT22;50101;49.438;11.098;2024-02-26T15:06:57;20.10;55.30
38237;DHT22;50101;49.438;11.098;2024-02-26T15:09:24;20.30;55.30
38237;DHT22;50101;49.438;11.098;2024-02-26T15:11:50;20.30;55.20
38237;DHT22;50101;49.438;11.098;2024-02-26T15:14:17;20.40;55.30
38237;DHT22;50101;49.438;11.098;2024-02-26T15:16:44;20.40;55.20
38237;DHT22;50101;49.438;11.098;2024-02-26T15:19:11;20.40;55.20
38237;DHT22;50101;49.438;11.098;2024-02-26T15:21:44;20.40;55.00
38237;DHT22;50101;49.438;11.098;2024-02-26T15:24:11;20.20;53.90
38237;DHT22;50101;49.438;11.098;2024-02-26T15:26:38;20.20;53.70
38237;DHT22;50101;49.438;11.098;2024-02-26T15:29:08;20.10;53.70
38237;DHT22;50101;49.438;11.098;2024-02-26T15:31:38;20.20;53.80
38237;DHT22;50101;49.438;11.098;2024-02-26T15:34:05;20.10;53.60
38237;DHT22;50101;49.438;11.098;2024-02-26T15:36:33;20.20;53.70
38237;DHT22;50101;49.438;11.098;2024-02-26T15:39:00;20.10;53.70
38237;DHT22;50101;49.438;11.098;2024-02-26T15:41:28;20.10;53.60
38237;DHT22;50101;49.438;11.098;2024-02-26T15:43:54;20.10;53.60
38237;DHT22;50101;49.438;11.098;2024-02-26T15:46:21;20.10;53.70
38237;DHT22;50101;49.438;11.098;2024-02-26T15:48:48;20.10;53.70
38237;DHT22;50101;49.438;11.098;2024-02-26T15:51:22;20.00;53.60
38237;DHT22;50101;49.438;11.098;2024-02-26T15:53:51;20.00;53.60
38237;DHT22;50101;49.438;11.098;2024-02-26T15:56:17;20.00;53.70
38237;DHT22;50101;49.438;11.098;2024-02-26T15:58:44;19.90;53.70